sensor_id;sensor_type;location;lat;lon;timestamp;pressure;altitude;pressure_sealevel;temperature
48628;BMP280;34424;52.234;6.500;2023-02-26T11:59:22;146131.69;;;8.94
48628;BMP280;34424;52.234;6.500;2023-02-26T12:04:25;146256.59;;;9.45
48628;BMP280;34424;52.234;6.500;2023-02-26T12:09:28;146161.38;;;9.06
48628;BMP280;34424;52.234;6.500;2023-02-26T12:14:46;146127.97;;;8.92
48628;BMP280;34424;52.234;6.500;2023-02-26T12:19:54;146115.63;;;8.87
48628;BMP280;34424;52.234;6.500;2023-02-26T12:25:20;146323.44;;;9.73
48628;BMP280;34424;52.234;6.500;2023-02-26T12:30:38;146269.00;;;9.50
48628;BMP280;34424;52.234;6.500;2023-02-26T12:35:58;146132.91;;;8.95
48628;BMP280;34424;52.234;6.500;2023-02-26T12:41:23;146160.16;;;9.06
48628;BMP280;34424;52.234;6.500;2023-02-26T12:46:45;146142.81;;;8.99
48628;BMP280;34424;52.234;6.500;2023-02-26T12:52:08;146047.63;;;8.59
48628;BMP280;34424;52.234;6.500;2023-02-26T12:57:39;145979.59;;;8.31
48628;BMP280;34424;52.234;6.500;2023-02-26T13:08:28;146131.69;;;8.94
48628;BMP280;34424;52.234;6.500;2023-02-26T13:13:48;146130.44;;;8.93
48628;BMP280;34424;52.234;6.500;2023-02-26T13:18:58;146150.25;;;9.02
48628;BMP280;34424;52.234;6.500;2023-02-26T13:24:09;146197.22;;;9.21
48628;BMP280;34424;52.234;6.500;2023-02-26T13:29:15;146063.69;;;8.66
48628;BMP280;34424;52.234;6.500;2023-02-26T13:34:28;146062.44;;;8.66
48628;BMP280;34424;52.234;6.500;2023-02-26T13:39:40;146212.09;;;9.27
48628;BMP280;34424;52.234;6.500;2023-02-26T13:44:53;146187.34;;;9.17
48628;BMP280;34424;52.234;6.500;2023-02-26T13:50:11;146111.91;;;8.86
48628;BMP280;34424;52.234;6.500;2023-02-26T13:55:40;145935.09;;;8.13
48628;BMP280;34424;52.234;6.500;2023-02-26T14:00:46;145818.97;;;7.65
48628;BMP280;34424;52.234;6.500;2023-02-26T14:05:54;145814.03;;;7.63
48628;BMP280;34424;52.234;6.500;2023-02-26T14:11:25;145668.28;;;7.03
48628;BMP280;34424;52.234;6.500;2023-02-26T14:16:33;145562.09;;;6.60
48628;BMP280;34424;52.234;6.500;2023-02-26T14:21:48;145581.88;;;6.68
48628;BMP280;34424;52.234;6.500;2023-02-26T14:27:06;145537.44;;;6.50
48628;BMP280;34424;52.234;6.500;2023-02-26T14:32:15;145523.88;;;6.44
48628;BMP280;34424;52.234;6.500;2023-02-26T14:37:27;145457.25;;;6.17
48628;BMP280;34424;52.234;6.500;2023-02-26T14:42:36;145436.22;;;6.08
48628;BMP280;34424;52.234;6.500;2023-02-26T14:47:40;145485.59;;;6.28
48628;BMP280;34424;52.234;6.500;2023-02-26T14:53:05;145480.66;;;6.26
48628;BMP280;34424;52.234;6.500;2023-02-26T14:58:25;145418.97;;;6.01
48628;BMP280;34424;52.234;6.500;2023-02-26T15:03:49;145481.91;;;6.27
48628;BMP280;34424;52.234;6.500;2023-02-26T15:09:05;145520.16;;;6.42
48628;BMP280;34424;52.234;6.500;2023-02-26T15:14:44;145275.84;;;5.42
48628;BMP280;34424;52.234;6.500;2023-02-26T15:20:07;145125.47;;;4.80
48628;BMP280;34424;52.234;6.500;2023-02-26T15:25:16;145231.47;;;5.23
48628;BMP280;34424;52.234;6.500;2023-02-26T15:30:23;145299.28;;;5.51
48628;BMP280;34424;52.234;6.500;2023-02-26T15:35:27;145299.28;;;5.51
48628;BMP280;34424;52.234;6.500;2023-02-26T15:40:34;145347.41;;;5.71
48628;BMP280;34424;52.234;6.500;2023-02-26T15:45:40;145166.09;;;4.97
48628;BMP280;34424;52.234;6.500;2023-02-26T15:50:45;145152.56;;;4.91
48628;BMP280;34424;52.234;6.500;2023-02-26T15:55:52;145187.09;;;5.05
48628;BMP280;34424;52.234;6.500;2023-02-26T16:01:00;145280.75;;;5.44
48628;BMP280;34424;52.234;6.500;2023-02-26T16:06:04;145173.53;;;5.00
48628;BMP280;34424;52.234;6.500;2023-02-26T16:11:10;145014.56;;;4.34
48628;BMP280;34424;52.234;6.500;2023-02-26T16:16:17;144966.50;;;4.14
48628;BMP280;34424;52.234;6.500;2023-02-26T16:21:28;144933.22;;;4.00
48628;BMP280;34424;52.234;6.500;2023-02-26T16:26:36;144896.31;;;3.85
48628;BMP280;34424;52.234;6.500;2023-02-26T16:31:41;144834.72;;;3.60
48628;BMP280;34424;52.234;6.500;2023-02-26T16:36:45;144765.81;;;3.31
48628;BMP280;34424;52.234;6.500;2023-02-26T16:42:01;144701.75;;;3.05
48628;BMP280;34424;52.234;6.500;2023-02-26T16:47:06;144683.31;;;2.97
48628;BMP280;34424;52.234;6.500;2023-02-26T16:52:17;144659.94;;;2.88
48628;BMP280;34424;52.234;6.500;2023-02-26T16:57:23;144627.94;;;2.74
48628;BMP280;34424;52.234;6.500;2023-02-26T17:02:32;144576.25;;;2.53
48628;BMP280;34424;52.234;6.500;2023-02-26T17:07:45;144545.53;;;2.40
48628;BMP280;34424;52.234;6.500;2023-02-26T17:12:50;144512.28;;;2.27
48628;BMP280;34424;52.234;6.500;2023-02-26T17:17:55;144476.63;;;2.12
48628;BMP280;34424;52.234;6.500;2023-02-26T17:22:59;144445.91;;;1.99
48628;BMP280;34424;52.234;6.500;2023-02-26T17:28:04;144432.38;;;1.94
48628;BMP280;34424;52.234;6.500;2023-02-26T17:33:11;144404.06;;;1.82
48628;BMP280;34424;52.234;6.500;2023-02-26T17:38:15;144381.97;;;1.73
48628;BMP280;34424;52.234;6.500;2023-02-26T17:43:17;144361.03;;;1.64
48628;BMP280;34424;52.234;6.500;2023-02-26T17:48:22;144325.41;;;1.49
48628;BMP280;34424;52.234;6.500;2023-02-26T17:53:25;144304.50;;;1.41
48628;BMP280;34424;52.234;6.500;2023-02-26T17:58:31;144262.75;;;1.23
48628;BMP280;34424;52.234;6.500;2023-02-26T18:03:36;144249.19;;;1.18
48628;BMP280;34424;52.234;6.500;2023-02-26T18:08:40;144217.28;;;1.05
48628;BMP280;34424;52.234;6.500;2023-02-26T18:13:43;144197.63;;;0.97
48628;BMP280;34424;52.234;6.500;2023-02-26T18:18:47;144184.09;;;0.91
48628;BMP280;34424;52.234;6.500;2023-02-26T18:23:51;144184.09;;;0.91
48628;BMP280;34424;52.234;6.500;2023-02-26T18:28:58;144130.03;;;0.69
48628;BMP280;34424;52.234;6.500;2023-02-26T18:34:03;144123.91;;;0.66
48628;BMP280;34424;52.234;6.500;2023-02-26T18:39:07;144116.53;;;0.63
48628;BMP280;34424;52.234;6.500;2023-02-26T18:44:12;144089.53;;;0.52
48628;BMP280;34424;52.234;6.500;2023-02-26T18:49:18;144063.72;;;0.41
48628;BMP280;34424;52.234;6.500;2023-02-26T18:54:20;144036.72;;;0.30
48628;BMP280;34424;52.234;6.500;2023-02-26T18:59:23;144044.09;;;0.33
48628;BMP280;34424;52.234;6.500;2023-02-26T19:04:27;144010.91;;;0.19
48628;BMP280;34424;52.234;6.500;2023-02-26T19:09:31;143991.28;;;0.11
48628;BMP280;34424;52.234;6.500;2023-02-26T19:14:35;143959.34;;;-0.02
48628;BMP280;34424;52.234;6.500;2023-02-26T19:19:39;143934.81;;;-0.12
48628;BMP280;34424;52.234;6.500;2023-02-26T19:24:42;143925.00;;;-0.16
48628;BMP280;34424;52.234;6.500;2023-02-26T19:29:48;143932.38;;;-0.13
48628;BMP280;34424;52.234;6.500;2023-02-26T19:34:51;143906.56;;;-0.24
48628;BMP280;34424;52.234;6.500;2023-02-26T19:39:54;143875.91;;;-0.37
48628;BMP280;34424;52.234;6.500;2023-02-26T19:44:57;143858.75;;;-0.44
48628;BMP280;34424;52.234;6.500;2023-02-26T19:50:01;143847.66;;;-0.48
48628;BMP280;34424;52.234;6.500;2023-02-26T19:55:05;143830.50;;;-0.55
48628;BMP280;34424;52.234;6.500;2023-02-26T20:00:09;143859.97;;;-0.43
48628;BMP280;34424;52.234;6.500;2023-02-26T20:05:14;143847.66;;;-0.48
48628;BMP280;34424;52.234;6.500;2023-02-26T20:10:19;143804.75;;;-0.66
48628;BMP280;34424;52.234;6.500;2023-02-26T20:15:23;143791.22;;;-0.72
48628;BMP280;34424;52.234;6.500;2023-02-26T20:20:27;143785.09;;;-0.74
48628;BMP280;34424;52.234;6.500;2023-02-26T20:25:30;143783.88;;;-0.75
48628;BMP280;34424;52.234;6.500;2023-02-26T20:30:34;143728.69;;;-0.98
48628;BMP280;34424;52.234;6.500;2023-02-26T20:35:39;143666.13;;;-1.24
48628;BMP280;34424;52.234;6.500;2023-02-26T20:40:46;143662.44;;;-1.25
48628;BMP280;34424;52.234;6.500;2023-02-26T20:45:49;143669.81;;;-1.22
48628;BMP280;34424;52.234;6.500;2023-02-26T20:50:58;143623.25;;;-1.41
48628;BMP280;34424;52.234;6.500;2023-02-26T20:56:07;143598.72;;;-1.51
48628;BMP280;34424;52.234;6.500;2023-02-26T21:01:09;143599.94;;;-1.51
48628;BMP280;34424;52.234;6.500;2023-02-26T21:06:13;143591.34;;;-1.55
48628;BMP280;34424;52.234;6.500;2023-02-26T21:11:16;143576.66;;;-1.61
48628;BMP280;34424;52.234;6.500;2023-02-26T21:16:19;143547.22;;;-1.73
48628;BMP280;34424;52.234;6.500;2023-02-26T21:21:23;143566.84;;;-1.65
48628;BMP280;34424;52.234;6.500;2023-02-26T21:26:25;143603.59;;;-1.49
48628;BMP280;34424;52.234;6.500;2023-02-26T21:31:29;143595.03;;;-1.53
48628;BMP280;34424;52.234;6.500;2023-02-26T21:36:33;143601.16;;;-1.50
48628;BMP280;34424;52.234;6.500;2023-02-26T21:41:36;143591.34;;;-1.55
48628;BMP280;34424;52.234;6.500;2023-02-26T21:46:39;143590.13;;;-1.55
48628;BMP280;34424;52.234;6.500;2023-02-26T21:51:43;143550.88;;;-1.71
48628;BMP280;34424;52.234;6.500;2023-02-26T21:56:46;143533.75;;;-1.78
48628;BMP280;34424;52.234;6.500;2023-02-26T22:01:49;143510.47;;;-1.88
48628;BMP280;34424;52.234;6.500;2023-02-26T22:06:54;143539.88;;;-1.76
48628;BMP280;34424;52.234;6.500;2023-02-26T22:11:57;143534.97;;;-1.78
48628;BMP280;34424;52.234;6.500;2023-02-26T22:16:59;143516.59;;;-1.86
48628;BMP280;34424;52.234;6.500;2023-02-26T22:22:03;143517.81;;;-1.85
48628;BMP280;34424;52.234;6.500;2023-02-26T22:27:06;143530.06;;;-1.80
48628;BMP280;34424;52.234;6.500;2023-02-26T22:32:09;143522.72;;;-1.83
48628;BMP280;34424;52.234;6.500;2023-02-26T22:37:13;143541.09;;;-1.75
48628;BMP280;34424;52.234;6.500;2023-02-26T22:42:15;143558.25;;;-1.68
48628;BMP280;34424;52.234;6.500;2023-02-26T22:47:18;143577.88;;;-1.60
48628;BMP280;34424;52.234;6.500;2023-02-26T22:52:22;143606.06;;;-1.48
48628;BMP280;34424;52.234;6.500;2023-02-26T22:57:24;143642.84;;;-1.33
48628;BMP280;34424;52.234;6.500;2023-02-26T23:02:28;143682.09;;;-1.17
48628;BMP280;34424;52.234;6.500;2023-02-26T23:07:32;143705.38;;;-1.07
48628;BMP280;34424;52.234;6.500;2023-02-26T23:12:35;143715.19;;;-1.03
48628;BMP280;34424;52.234;6.500;2023-02-26T23:17:39;143682.09;;;-1.17
48628;BMP280;34424;52.234;6.500;2023-02-26T23:22:43;143630.59;;;-1.38
48628;BMP280;34424;52.234;6.500;2023-02-26T23:27:46;143546.00;;;-1.73
48628;BMP280;34424;52.234;6.500;2023-02-26T23:32:48;143477.38;;;-2.02
48628;BMP280;34424;52.234;6.500;2023-02-26T23:37:52;143452.88;;;-2.12
48628;BMP280;34424;52.234;6.500;2023-02-26T23:42:55;143424.69;;;-2.24
48628;BMP280;34424;52.234;6.500;2023-02-26T23:47:58;143362.22;;;-2.50
48628;BMP280;34424;52.234;6.500;2023-02-26T23:53:02;143294.84;;;-2.78
48628;BMP280;34424;52.234;6.500;2023-02-26T23:58:05;143226.28;;;-3.06
